sensor_id;sensor_type;location;lat;lon;timestamp;P1;durP1;ratioP1;P2;durP2;ratioP2
9657;SDS011;4867;48.112;11.622;2024-01-30T00:00:34;14.00;;;10.00;;
9657;SDS011;4867;48.112;11.622;2024-01-30T00:03:01;11.53;;;9.00;;
9657;SDS011;4867;48.112;11.622;2024-01-30T00:05:29;14.40;;;9.47;;
9657;SDS011;4867;48.112;11.622;2024-01-30T00:07:56;12.77;;;9.60;;
9657;SDS011;4867;48.112;11.622;2024-01-30T00:10:24;12.50;;;9.63;;
9657;SDS011;4867;48.112;11.622;2024-01-30T00:12:51;12.07;;;8.63;;
9657;SDS011;4867;48.112;11.622;2024-01-30T00:15:19;12.30;;;9.30;;
9657;SDS011;4867;48.112;11.622;2024-01-30T00:17:47;14.23;;;9.50;;
9657;SDS011;4867;48.112;11.622;2024-01-30T00:20:14;11.93;;;9.20;;
9657;SDS011;4867;48.112;11.622;2024-01-30T00:22:42;12.03;;;8.50;;
9657;SDS011;4867;48.112;11.622;2024-01-30T00:25:09;11.90;;;9.57;;
9657;SDS011;4867;48.112;11.622;2024-01-30T00:27:36;11.33;;;8.93;;
9657;SDS011;4867;48.112;11.622;2024-01-30T00:30:04;12.43;;;9.77;;
9657;SDS011;4867;48.112;11.622;2024-01-30T00:32:32;12.47;;;9.33;;
9657;SDS011;4867;48.112;11.622;2024-01-30T00:34:59;11.00;;;9.17;;
9657;SDS011;4867;48.112;11.622;2024-01-30T00:37:27;11.57;;;9.20;;
9657;SDS011;4867;48.112;11.622;2024-01-30T00:39:54;14.33;;;11.27;;
9657;SDS011;4867;48.112;11.622;2024-01-30T00:42:21;10.93;;;8.90;;
9657;SDS011;4867;48.112;11.622;2024-01-30T00:44:50;10.30;;;8.60;;
9657;SDS011;4867;48.112;11.622;2024-01-30T00:47:17;11.33;;;8.47;;
9657;SDS011;4867;48.112;11.622;2024-01-30T00:49:45;10.87;;;8.43;;
9657;SDS011;4867;48.112;11.622;2024-01-30T00:52:12;11.83;;;8.93;;
9657;SDS011;4867;48.112;11.622;2024-01-30T00:54:40;10.77;;;8.90;;
9657;SDS011;4867;48.112;11.622;2024-01-30T00:57:07;10.73;;;8.57;;
9657;SDS011;4867;48.112;11.622;2024-01-30T00:59:35;9.33;;;7.87;;
9657;SDS011;4867;48.112;11.622;2024-01-30T01:02:02;10.27;;;7.90;;
9657;SDS011;4867;48.112;11.622;2024-01-30T01:04:30;8.90;;;7.43;;
9657;SDS011;4867;48.112;11.622;2024-01-30T01:06:58;8.43;;;7.50;;
9657;SDS011;4867;48.112;11.622;2024-01-30T01:09:25;9.57;;;7.40;;
9657;SDS011;4867;48.112;11.622;2024-01-30T01:11:53;8.90;;;7.00;;
9657;SDS011;4867;48.112;11.622;2024-01-30T01:14:20;10.70;;;8.00;;
9657;SDS011;4867;48.112;11.622;2024-01-30T01:16:51;10.33;;;7.17;;
9657;SDS011;4867;48.112;11.622;2024-01-30T01:19:33;9.73;;;7.40;;
9657;SDS011;4867;48.112;11.622;2024-01-30T01:22:06;8.10;;;7.17;;
9657;SDS011;4867;48.112;11.622;2024-01-30T01:24:39;10.07;;;7.20;;
9657;SDS011;4867;48.112;11.622;2024-01-30T01:27:09;11.27;;;8.30;;
9657;SDS011;4867;48.112;11.622;2024-01-30T01:29:36;9.67;;;7.63;;
9657;SDS011;4867;48.112;11.622;2024-01-30T01:32:07;8.77;;;6.47;;
9657;SDS011;4867;48.112;11.622;2024-01-30T01:34:37;8.40;;;7.20;;
9657;SDS011;4867;48.112;11.622;2024-01-30T01:37:05;8.60;;;6.73;;
9657;SDS011;4867;48.112;11.622;2024-01-30T01:39:34;8.47;;;6.43;;
9657;SDS011;4867;48.112;11.622;2024-01-30T01:42:01;7.57;;;6.60;;
9657;SDS011;4867;48.112;11.622;2024-01-30T01:44:28;8.40;;;6.53;;
9657;SDS011;4867;48.112;11.622;2024-01-30T01:46:56;8.77;;;6.40;;
9657;SDS011;4867;48.112;11.622;2024-01-30T01:49:24;7.37;;;6.53;;
9657;SDS011;4867;48.112;11.622;2024-01-30T01:51:55;9.40;;;7.17;;
9657;SDS011;4867;48.112;11.622;2024-01-30T01:54:26;9.93;;;7.27;;
9657;SDS011;4867;48.112;11.622;2024-01-30T01:56:58;9.47;;;7.10;;
9657;SDS011;4867;48.112;11.622;2024-01-30T01:59:28;10.50;;;6.97;;
9657;SDS011;4867;48.112;11.622;2024-01-30T02:01:55;9.53;;;7.73;;
9657;SDS011;4867;48.112;11.622;2024-01-30T02:04:23;8.63;;;7.47;;
9657;SDS011;4867;48.112;11.622;2024-01-30T02:06:53;9.30;;;7.63;;
9657;SDS011;4867;48.112;11.622;2024-01-30T02:09:31;8.57;;;7.30;;
9657;SDS011;4867;48.112;11.622;2024-01-30T02:12:06;8.90;;;7.33;;
9657;SDS011;4867;48.112;11.622;2024-01-30T02:14:33;9.33;;;7.40;;
9657;SDS011;4867;48.112;11.622;2024-01-30T02:17:21;8.13;;;6.83;;
9657;SDS011;4867;48.112;11.622;2024-01-30T02:19:50;8.70;;;7.07;;
9657;SDS011;4867;48.112;11.622;2024-01-30T02:22:18;9.97;;;7.13;;
9657;SDS011;4867;48.112;11.622;2024-01-30T02:24:47;7.90;;;7.10;;
9657;SDS011;4867;48.112;11.622;2024-01-30T02:27:15;9.40;;;7.57;;
9657;SDS011;4867;48.112;11.622;2024-01-30T02:29:42;8.40;;;6.90;;
9657;SDS011;4867;48.112;11.622;2024-01-30T02:32:09;11.70;;;7.03;;
9657;SDS011;4867;48.112;11.622;2024-01-30T02:34:37;9.57;;;7.50;;
9657;SDS011;4867;48.112;11.622;2024-01-30T02:37:04;8.17;;;6.97;;
9657;SDS011;4867;48.112;11.622;2024-01-30T02:39:32;8.97;;;7.40;;
9657;SDS011;4867;48.112;11.622;2024-01-30T02:41:59;9.33;;;6.90;;
9657;SDS011;4867;48.112;11.622;2024-01-30T02:44:26;8.90;;;7.20;;
9657;SDS011;4867;48.112;11.622;2024-01-30T02:46:54;8.10;;;6.33;;
9657;SDS011;4867;48.112;11.622;2024-01-30T02:49:21;7.47;;;6.13;;
9657;SDS011;4867;48.112;11.622;2024-01-30T02:51:49;9.60;;;6.70;;
9657;SDS011;4867;48.112;11.622;2024-01-30T02:54:17;8.23;;;6.10;;
9657;SDS011;4867;48.112;11.622;2024-01-30T02:56:44;6.90;;;6.03;;
9657;SDS011;4867;48.112;11.622;2024-01-30T02:59:12;8.97;;;6.57;;
9657;SDS011;4867;48.112;11.622;2024-01-30T03:01:43;8.07;;;6.33;;
9657;SDS011;4867;48.112;11.622;2024-01-30T03:04:11;8.13;;;5.80;;
9657;SDS011;4867;48.112;11.622;2024-01-30T03:06:44;7.53;;;5.93;;
9657;SDS011;4867;48.112;11.622;2024-01-30T03:09:13;6.27;;;5.50;;
9657;SDS011;4867;48.112;11.622;2024-01-30T03:11:40;7.13;;;5.87;;
9657;SDS011;4867;48.112;11.622;2024-01-30T03:14:07;7.23;;;5.63;;
9657;SDS011;4867;48.112;11.622;2024-01-30T03:16:37;6.73;;;5.67;;
9657;SDS011;4867;48.112;11.622;2024-01-30T03:19:08;7.37;;;5.80;;
9657;SDS011;4867;48.112;11.622;2024-01-30T03:21:36;6.20;;;5.60;;
9657;SDS011;4867;48.112;11.622;2024-01-30T03:24:03;5.90;;;5.07;;
9657;SDS011;4867;48.112;11.622;2024-01-30T03:26:31;6.53;;;5.40;;
9657;SDS011;4867;48.112;11.622;2024-01-30T03:28:58;6.13;;;5.33;;
9657;SDS011;4867;48.112;11.622;2024-01-30T03:31:26;5.90;;;5.30;;
9657;SDS011;4867;48.112;11.622;2024-01-30T03:33:53;8.60;;;5.50;;
9657;SDS011;4867;48.112;11.622;2024-01-30T03:36:20;6.50;;;5.13;;
9657;SDS011;4867;48.112;11.622;2024-01-30T03:38:48;6.60;;;5.87;;
9657;SDS011;4867;48.112;11.622;2024-01-30T03:41:15;5.90;;;5.00;;
9657;SDS011;4867;48.112;11.622;2024-01-30T03:43:43;8.77;;;5.67;;
9657;SDS011;4867;48.112;11.622;2024-01-30T03:46:11;6.23;;;5.43;;
9657;SDS011;4867;48.112;11.622;2024-01-30T03:48:39;5.63;;;5.00;;
9657;SDS011;4867;48.112;11.622;2024-01-30T03:51:06;5.03;;;4.53;;
9657;SDS011;4867;48.112;11.622;2024-01-30T03:53:34;4.80;;;4.27;;
9657;SDS011;4867;48.112;11.622;2024-01-30T03:56:02;5.83;;;5.00;;
9657;SDS011;4867;48.112;11.622;2024-01-30T03:58:29;5.57;;;4.80;;
9657;SDS011;4867;48.112;11.622;2024-01-30T04:00:57;5.57;;;4.77;;
9657;SDS011;4867;48.112;11.622;2024-01-30T04:03:24;5.77;;;5.10;;
9657;SDS011;4867;48.112;11.622;2024-01-30T04:05:52;8.17;;;5.00;;
9657;SDS011;4867;48.112;11.622;2024-01-30T04:08:20;8.80;;;5.07;;
9657;SDS011;4867;48.112;11.622;2024-01-30T04:10:47;7.50;;;5.07;;
9657;SDS011;4867;48.112;11.622;2024-01-30T04:13:15;7.70;;;5.07;;
9657;SDS011;4867;48.112;11.622;2024-01-30T04:15:42;10.97;;;4.27;;
9657;SDS011;4867;48.112;11.622;2024-01-30T04:18:10;5.77;;;4.60;;
9657;SDS011;4867;48.112;11.622;2024-01-30T04:20:37;5.60;;;4.53;;
9657;SDS011;4867;48.112;11.622;2024-01-30T04:23:05;7.20;;;4.27;;
9657;SDS011;4867;48.112;11.622;2024-01-30T04:25:33;6.23;;;4.27;;
9657;SDS011;4867;48.112;11.622;2024-01-30T04:28:00;5.20;;;4.20;;
9657;SDS011;4867;48.112;11.622;2024-01-30T04:30:28;4.57;;;3.83;;
9657;SDS011;4867;48.112;11.622;2024-01-30T04:32:55;6.43;;;4.10;;
9657;SDS011;4867;48.112;11.622;2024-01-30T04:35:26;5.63;;;3.93;;
9657;SDS011;4867;48.112;11.622;2024-01-30T04:37:54;5.73;;;4.33;;
9657;SDS011;4867;48.112;11.622;2024-01-30T04:40:21;4.77;;;4.17;;
9657;SDS011;4867;48.112;11.622;2024-01-30T04:42:49;5.47;;;4.03;;
9657;SDS011;4867;48.112;11.622;2024-01-30T04:45:17;5.90;;;3.93;;
9657;SDS011;4867;48.112;11.622;2024-01-30T04:47:44;4.93;;;4.13;;
9657;SDS011;4867;48.112;11.622;2024-01-30T04:50:13;4.90;;;4.40;;
9657;SDS011;4867;48.112;11.622;2024-01-30T04:52:40;4.67;;;4.17;;
9657;SDS011;4867;48.112;11.622;2024-01-30T04:55:07;4.47;;;3.90;;
9657;SDS011;4867;48.112;11.622;2024-01-30T04:57:35;5.83;;;4.60;;
9657;SDS011;4867;48.112;11.622;2024-01-30T05:00:03;5.37;;;4.00;;
9657;SDS011;4867;48.112;11.622;2024-01-30T05:02:32;5.37;;;4.40;;
9657;SDS011;4867;48.112;11.622;2024-01-30T05:04:59;6.93;;;3.90;;
9657;SDS011;4867;48.112;11.622;2024-01-30T05:07:27;4.40;;;4.00;;
9657;SDS011;4867;48.112;11.622;2024-01-30T05:09:54;4.67;;;3.93;;
9657;SDS011;4867;48.112;11.622;2024-01-30T05:12:25;5.07;;;4.10;;
9657;SDS011;4867;48.112;11.622;2024-01-30T05:14:53;5.17;;;4.20;;
9657;SDS011;4867;48.112;11.622;2024-01-30T05:17:22;4.47;;;3.77;;
9657;SDS011;4867;48.112;11.622;2024-01-30T05:19:49;5.17;;;4.07;;
9657;SDS011;4867;48.112;11.622;2024-01-30T05:22:17;6.13;;;4.37;;
9657;SDS011;4867;48.112;11.622;2024-01-30T05:24:45;6.90;;;3.80;;
9657;SDS011;4867;48.112;11.622;2024-01-30T05:27:13;5.57;;;4.20;;
9657;SDS011;4867;48.112;11.622;2024-01-30T05:29:41;6.13;;;4.47;;
9657;SDS011;4867;48.112;11.622;2024-01-30T05:32:08;6.30;;;4.00;;
9657;SDS011;4867;48.112;11.622;2024-01-30T05:34:37;4.20;;;3.70;;
9657;SDS011;4867;48.112;11.622;2024-01-30T05:37:04;5.07;;;3.70;;
9657;SDS011;4867;48.112;11.622;2024-01-30T05:39:32;4.20;;;3.50;;
9657;SDS011;4867;48.112;11.622;2024-01-30T05:42:00;6.27;;;3.97;;
9657;SDS011;4867;48.112;11.622;2024-01-30T05:44:28;4.83;;;3.70;;
9657;SDS011;4867;48.112;11.622;2024-01-30T05:46:55;4.53;;;3.50;;
9657;SDS011;4867;48.112;11.622;2024-01-30T05:49:22;4.80;;;3.87;;
9657;SDS011;4867;48.112;11.622;2024-01-30T05:51:50;7.33;;;4.20;;
9657;SDS011;4867;48.112;11.622;2024-01-30T05:54:18;4.93;;;3.80;;
9657;SDS011;4867;48.112;11.622;2024-01-30T05:56:45;6.40;;;4.30;;
9657;SDS011;4867;48.112;11.622;2024-01-30T05:59:13;6.80;;;4.80;;
9657;SDS011;4867;48.112;11.622;2024-01-30T06:01:47;6.53;;;4.70;;
9657;SDS011;4867;48.112;11.622;2024-01-30T06:04:15;5.70;;;4.57;;
9657;SDS011;4867;48.112;11.622;2024-01-30T06:06:43;5.63;;;3.90;;
9657;SDS011;4867;48.112;11.622;2024-01-30T06:09:11;6.77;;;3.60;;
9657;SDS011;4867;48.112;11.622;2024-01-30T06:11:39;4.13;;;3.57;;
9657;SDS011;4867;48.112;11.622;2024-01-30T06:14:09;5.87;;;3.30;;
9657;SDS011;4867;48.112;11.622;2024-01-30T06:16:37;6.23;;;4.10;;
9657;SDS011;4867;48.112;11.622;2024-01-30T06:19:04;5.00;;;3.90;;
9657;SDS011;4867;48.112;11.622;2024-01-30T06:21:32;4.73;;;3.70;;
9657;SDS011;4867;48.112;11.622;2024-01-30T06:24:04;4.43;;;4.00;;
9657;SDS011;4867;48.112;11.622;2024-01-30T06:26:31;7.63;;;4.67;;
9657;SDS011;4867;48.112;11.622;2024-01-30T06:28:59;6.87;;;4.73;;
9657;SDS011;4867;48.112;11.622;2024-01-30T06:31:26;9.07;;;5.67;;
9657;SDS011;4867;48.112;11.622;2024-01-30T06:33:53;7.43;;;5.00;;
9657;SDS011;4867;48.112;11.622;2024-01-30T06:36:21;6.60;;;5.00;;
9657;SDS011;4867;48.112;11.622;2024-01-30T06:38:48;7.00;;;4.97;;
9657;SDS011;4867;48.112;11.622;2024-01-30T06:41:16;6.97;;;4.90;;
9657;SDS011;4867;48.112;11.622;2024-01-30T06:43:44;8.40;;;4.90;;
9657;SDS011;4867;48.112;11.622;2024-01-30T06:46:12;6.13;;;4.60;;
9657;SDS011;4867;48.112;11.622;2024-01-30T06:48:40;8.33;;;4.53;;
9657;SDS011;4867;48.112;11.622;2024-01-30T06:51:07;5.60;;;4.03;;
9657;SDS011;4867;48.112;11.622;2024-01-30T06:53:35;5.70;;;4.07;;
9657;SDS011;4867;48.112;11.622;2024-01-30T06:56:02;4.50;;;3.07;;
9657;SDS011;4867;48.112;11.622;2024-01-30T06:58:30;6.03;;;3.23;;
9657;SDS011;4867;48.112;11.622;2024-01-30T07:00:57;4.30;;;3.00;;
9657;SDS011;4867;48.112;11.622;2024-01-30T07:03:25;4.33;;;3.20;;
9657;SDS011;4867;48.112;11.622;2024-01-30T07:05:53;6.03;;;3.17;;
9657;SDS011;4867;48.112;11.622;2024-01-30T07:08:20;3.87;;;3.20;;
9657;SDS011;4867;48.112;11.622;2024-01-30T07:10:47;4.23;;;3.30;;
9657;SDS011;4867;48.112;11.622;2024-01-30T07:13:15;5.00;;;3.50;;
9657;SDS011;4867;48.112;11.622;2024-01-30T07:15:43;4.90;;;4.10;;
9657;SDS011;4867;48.112;11.622;2024-01-30T07:18:11;4.50;;;3.73;;
9657;SDS011;4867;48.112;11.622;2024-01-30T07:20:40;6.50;;;4.13;;
9657;SDS011;4867;48.112;11.622;2024-01-30T07:23:13;7.57;;;3.70;;
9657;SDS011;4867;48.112;11.622;2024-01-30T07:25:43;6.00;;;3.87;;
9657;SDS011;4867;48.112;11.622;2024-01-30T07:28:20;5.13;;;4.20;;
9657;SDS011;4867;48.112;11.622;2024-01-30T07:30:47;7.90;;;3.37;;
9657;SDS011;4867;48.112;11.622;2024-01-30T07:33:16;5.80;;;3.23;;
9657;SDS011;4867;48.112;11.622;2024-01-30T07:35:44;6.27;;;3.23;;
9657;SDS011;4867;48.112;11.622;2024-01-30T07:38:13;4.97;;;3.63;;
9657;SDS011;4867;48.112;11.622;2024-01-30T07:40:41;6.00;;;3.17;;
9657;SDS011;4867;48.112;11.622;2024-01-30T07:43:08;4.57;;;3.07;;
9657;SDS011;4867;48.112;11.622;2024-01-30T07:45:36;8.87;;;4.30;;
9657;SDS011;4867;48.112;11.622;2024-01-30T07:48:05;5.23;;;3.37;;
9657;SDS011;4867;48.112;11.622;2024-01-30T07:50:33;5.53;;;3.87;;
9657;SDS011;4867;48.112;11.622;2024-01-30T07:53:00;5.20;;;3.43;;
9657;SDS011;4867;48.112;11.622;2024-01-30T07:55:29;5.17;;;3.93;;
9657;SDS011;4867;48.112;11.622;2024-01-30T07:57:58;4.57;;;3.03;;
9657;SDS011;4867;48.112;11.622;2024-01-30T08:00:27;3.50;;;2.90;;
9657;SDS011;4867;48.112;11.622;2024-01-30T08:02:56;8.43;;;3.50;;
9657;SDS011;4867;48.112;11.622;2024-01-30T08:05:24;5.43;;;4.00;;
9657;SDS011;4867;48.112;11.622;2024-01-30T08:07:51;5.13;;;4.10;;
9657;SDS011;4867;48.112;11.622;2024-01-30T08:10:19;6.87;;;4.43;;
9657;SDS011;4867;48.112;11.622;2024-01-30T08:12:47;6.57;;;5.00;;
9657;SDS011;4867;48.112;11.622;2024-01-30T08:15:15;9.20;;;6.00;;
9657;SDS011;4867;48.112;11.622;2024-01-30T08:17:43;13.47;;;8.33;;
9657;SDS011;4867;48.112;11.622;2024-01-30T08:20:11;7.97;;;6.27;;
9657;SDS011;4867;48.112;11.622;2024-01-30T08:22:39;9.50;;;5.33;;
9657;SDS011;4867;48.112;11.622;2024-01-30T08:25:07;7.00;;;4.90;;
9657;SDS011;4867;48.112;11.622;2024-01-30T08:27:36;7.20;;;5.57;;
9657;SDS011;4867;48.112;11.622;2024-01-30T08:30:06;6.77;;;4.47;;
9657;SDS011;4867;48.112;11.622;2024-01-30T08:32:34;8.67;;;5.40;;
9657;SDS011;4867;48.112;11.622;2024-01-30T08:35:01;12.50;;;6.97;;
9657;SDS011;4867;48.112;11.622;2024-01-30T08:37:33;12.73;;;6.83;;
9657;SDS011;4867;48.112;11.622;2024-01-30T08:40:01;8.70;;;5.60;;
9657;SDS011;4867;48.112;11.622;2024-01-30T08:42:31;11.63;;;6.80;;
9657;SDS011;4867;48.112;11.622;2024-01-30T08:45:00;12.87;;;9.03;;
9657;SDS011;4867;48.112;11.622;2024-01-30T08:47:27;11.63;;;7.43;;
9657;SDS011;4867;48.112;11.622;2024-01-30T08:49:55;8.37;;;5.53;;
9657;SDS011;4867;48.112;11.622;2024-01-30T08:52:22;8.93;;;6.13;;
9657;SDS011;4867;48.112;11.622;2024-01-30T08:54:51;9.23;;;6.30;;
9657;SDS011;4867;48.112;11.622;2024-01-30T08:57:19;6.60;;;3.77;;
9657;SDS011;4867;48.112;11.622;2024-01-30T08:59:46;11.57;;;7.07;;
9657;SDS011;4867;48.112;11.622;2024-01-30T09:02:14;7.10;;;4.10;;
9657;SDS011;4867;48.112;11.622;2024-01-30T09:04:43;4.73;;;3.07;;
9657;SDS011;4867;48.112;11.622;2024-01-30T09:07:11;5.83;;;3.50;;
9657;SDS011;4867;48.112;11.622;2024-01-30T09:09:40;8.43;;;6.30;;
9657;SDS011;4867;48.112;11.622;2024-01-30T09:12:08;9.27;;;5.93;;
9657;SDS011;4867;48.112;11.622;2024-01-30T09:14:39;4.83;;;3.67;;
9657;SDS011;4867;48.112;11.622;2024-01-30T09:17:07;8.33;;;4.47;;
9657;SDS011;4867;48.112;11.622;2024-01-30T09:19:35;5.70;;;3.73;;
9657;SDS011;4867;48.112;11.622;2024-01-30T09:22:03;4.70;;;3.20;;
9657;SDS011;4867;48.112;11.622;2024-01-30T09:24:31;4.57;;;2.73;;
9657;SDS011;4867;48.112;11.622;2024-01-30T09:26:58;5.83;;;3.63;;
9657;SDS011;4867;48.112;11.622;2024-01-30T09:29:25;7.03;;;4.83;;
9657;SDS011;4867;48.112;11.622;2024-01-30T09:31:53;7.07;;;3.57;;
9657;SDS011;4867;48.112;11.622;2024-01-30T09:34:21;8.07;;;5.27;;
9657;SDS011;4867;48.112;11.622;2024-01-30T09:36:49;6.87;;;3.40;;
9657;SDS011;4867;48.112;11.622;2024-01-30T09:39:16;10.43;;;7.37;;
9657;SDS011;4867;48.112;11.622;2024-01-30T09:41:48;7.03;;;4.50;;
9657;SDS011;4867;48.112;11.622;2024-01-30T09:44:19;11.23;;;7.17;;
9657;SDS011;4867;48.112;11.622;2024-01-30T09:46:48;6.77;;;4.20;;
9657;SDS011;4867;48.112;11.622;2024-01-30T09:49:16;9.37;;;4.30;;
9657;SDS011;4867;48.112;11.622;2024-01-30T09:51:47;10.53;;;8.00;;
9657;SDS011;4867;48.112;11.622;2024-01-30T09:54:16;4.10;;;3.30;;
9657;SDS011;4867;48.112;11.622;2024-01-30T09:56:44;6.63;;;3.93;;
9657;SDS011;4867;48.112;11.622;2024-01-30T09:59:11;7.57;;;3.30;;
9657;SDS011;4867;48.112;11.622;2024-01-30T10:01:39;8.30;;;3.27;;
9657;SDS011;4867;48.112;11.622;2024-01-30T10:04:08;5.90;;;3.87;;
9657;SDS011;4867;48.112;11.622;2024-01-30T10:06:37;3.70;;;3.00;;
9657;SDS011;4867;48.112;11.622;2024-01-30T10:09:05;4.33;;;3.03;;
9657;SDS011;4867;48.112;11.622;2024-01-30T10:11:32;7.10;;;3.43;;
9657;SDS011;4867;48.112;11.622;2024-01-30T10:14:00;9.20;;;6.40;;
9657;SDS011;4867;48.112;11.622;2024-01-30T10:16:27;5.70;;;3.20;;
9657;SDS011;4867;48.112;11.622;2024-01-30T10:18:55;10.30;;;3.57;;
9657;SDS011;4867;48.112;11.622;2024-01-30T10:21:24;30.23;;;14.40;;
9657;SDS011;4867;48.112;11.622;2024-01-30T10:23:52;12.40;;;4.77;;
9657;SDS011;4867;48.112;11.622;2024-01-30T10:26:19;7.97;;;2.67;;
9657;SDS011;4867;48.112;11.622;2024-01-30T10:28:48;5.03;;;2.83;;
9657;SDS011;4867;48.112;11.622;2024-01-30T10:31:17;5.13;;;2.73;;
9657;SDS011;4867;48.112;11.622;2024-01-30T10:33:45;10.33;;;2.70;;
9657;SDS011;4867;48.112;11.622;2024-01-30T10:36:14;4.77;;;2.80;;
9657;SDS011;4867;48.112;11.622;2024-01-30T10:38:47;6.90;;;2.80;;
9657;SDS011;4867;48.112;11.622;2024-01-30T10:41:18;11.20;;;3.13;;
9657;SDS011;4867;48.112;11.622;2024-01-30T10:43:57;5.13;;;3.27;;
9657;SDS011;4867;48.112;11.622;2024-01-30T10:46:31;9.60;;;5.60;;
9657;SDS011;4867;48.112;11.622;2024-01-30T10:49:02;6.67;;;3.57;;
9657;SDS011;4867;48.112;11.622;2024-01-30T10:51:31;6.27;;;2.90;;
9657;SDS011;4867;48.112;11.622;2024-01-30T10:54:01;4.80;;;2.87;;
9657;SDS011;4867;48.112;11.622;2024-01-30T10:56:32;5.60;;;2.70;;
9657;SDS011;4867;48.112;11.622;2024-01-30T10:59:00;6.17;;;2.97;;
9657;SDS011;4867;48.112;11.622;2024-01-30T11:01:29;9.37;;;3.20;;
9657;SDS011;4867;48.112;11.622;2024-01-30T11:03:57;6.57;;;3.53;;
9657;SDS011;4867;48.112;11.622;2024-01-30T11:06:26;7.60;;;6.10;;
9657;SDS011;4867;48.112;11.622;2024-01-30T11:11:31;7.50;;;4.10;;
9657;SDS011;4867;48.112;11.622;2024-01-30T11:14:00;7.13;;;3.60;;
9657;SDS011;4867;48.112;11.622;2024-01-30T11:16:31;12.07;;;8.10;;
9657;SDS011;4867;48.112;11.622;2024-01-30T11:19:00;7.63;;;5.43;;
9657;SDS011;4867;48.112;11.622;2024-01-30T11:21:30;6.30;;;4.50;;
9657;SDS011;4867;48.112;11.622;2024-01-30T11:23:57;8.50;;;4.10;;
9657;SDS011;4867;48.112;11.622;2024-01-30T11:26:30;5.47;;;4.00;;
9657;SDS011;4867;48.112;11.622;2024-01-30T11:29:07;10.73;;;4.30;;
9657;SDS011;4867;48.112;11.622;2024-01-30T11:40:23;6.33;;;2.40;;
9657;SDS011;4867;48.112;11.622;2024-01-30T11:42:53;5.23;;;2.70;;
9657;SDS011;4867;48.112;11.622;2024-01-30T11:45:24;8.40;;;3.57;;
9657;SDS011;4867;48.112;11.622;2024-01-30T11:47:54;8.17;;;2.90;;
9657;SDS011;4867;48.112;11.622;2024-01-30T11:50:25;6.97;;;2.80;;
9657;SDS011;4867;48.112;11.622;2024-01-30T11:52:54;6.00;;;3.27;;
9657;SDS011;4867;48.112;11.622;2024-01-30T11:55:22;4.57;;;2.50;;
9657;SDS011;4867;48.112;11.622;2024-01-30T11:57:50;10.57;;;3.20;;
9657;SDS011;4867;48.112;11.622;2024-01-30T12:00:18;9.40;;;3.30;;
9657;SDS011;4867;48.112;11.622;2024-01-30T12:02:54;6.77;;;2.90;;
9657;SDS011;4867;48.112;11.622;2024-01-30T12:05:25;5.63;;;2.87;;
9657;SDS011;4867;48.112;11.622;2024-01-30T12:07:56;3.73;;;2.77;;
9657;SDS011;4867;48.112;11.622;2024-01-30T12:10:31;4.33;;;3.00;;
9657;SDS011;4867;48.112;11.622;2024-01-30T12:13:01;5.13;;;2.93;;
9657;SDS011;4867;48.112;11.622;2024-01-30T12:15:31;6.63;;;2.93;;
9657;SDS011;4867;48.112;11.622;2024-01-30T12:18:06;4.30;;;2.73;;
9657;SDS011;4867;48.112;11.622;2024-01-30T12:20:37;7.27;;;5.83;;
9657;SDS011;4867;48.112;11.622;2024-01-30T12:23:05;12.70;;;7.20;;
9657;SDS011;4867;48.112;11.622;2024-01-30T12:25:36;10.50;;;4.17;;
9657;SDS011;4867;48.112;11.622;2024-01-30T12:28:05;7.67;;;5.00;;
9657;SDS011;4867;48.112;11.622;2024-01-30T12:30:36;6.03;;;3.70;;
9657;SDS011;4867;48.112;11.622;2024-01-30T12:33:06;8.60;;;3.90;;
9657;SDS011;4867;48.112;11.622;2024-01-30T12:35:37;7.27;;;4.83;;
9657;SDS011;4867;48.112;11.622;2024-01-30T12:38:28;12.27;;;4.87;;
9657;SDS011;4867;48.112;11.622;2024-01-30T12:40:59;6.37;;;2.77;;
9657;SDS011;4867;48.112;11.622;2024-01-30T12:43:27;6.40;;;2.90;;
9657;SDS011;4867;48.112;11.622;2024-01-30T12:46:05;2.80;;;2.13;;
9657;SDS011;4867;48.112;11.622;2024-01-30T12:48:33;3.50;;;2.50;;
9657;SDS011;4867;48.112;11.622;2024-01-30T12:51:02;7.13;;;2.70;;
9657;SDS011;4867;48.112;11.622;2024-01-30T12:53:30;4.33;;;2.50;;
9657;SDS011;4867;48.112;11.622;2024-01-30T12:55:57;5.63;;;2.60;;
9657;SDS011;4867;48.112;11.622;2024-01-30T12:58:25;4.67;;;2.50;;
9657;SDS011;4867;48.112;11.622;2024-01-30T13:00:54;6.37;;;2.70;;
9657;SDS011;4867;48.112;11.622;2024-01-30T13:03:21;3.50;;;2.50;;
9657;SDS011;4867;48.112;11.622;2024-01-30T13:05:49;6.33;;;3.20;;
9657;SDS011;4867;48.112;11.622;2024-01-30T13:08:17;5.70;;;3.10;;
9657;SDS011;4867;48.112;11.622;2024-01-30T13:10:44;5.87;;;3.50;;
9657;SDS011;4867;48.112;11.622;2024-01-30T13:13:16;3.13;;;2.40;;
9657;SDS011;4867;48.112;11.622;2024-01-30T13:15:47;4.43;;;2.40;;
9657;SDS011;4867;48.112;11.622;2024-01-30T13:18:16;3.37;;;2.60;;
9657;SDS011;4867;48.112;11.622;2024-01-30T13:20:44;3.10;;;2.77;;
9657;SDS011;4867;48.112;11.622;2024-01-30T13:23:15;3.63;;;2.70;;
9657;SDS011;4867;48.112;11.622;2024-01-30T13:25:42;5.53;;;2.77;;
9657;SDS011;4867;48.112;11.622;2024-01-30T13:28:10;3.80;;;3.03;;
9657;SDS011;4867;48.112;11.622;2024-01-30T13:30:37;5.63;;;2.70;;
9657;SDS011;4867;48.112;11.622;2024-01-30T13:33:05;7.33;;;3.30;;
9657;SDS011;4867;48.112;11.622;2024-01-30T13:35:37;6.77;;;3.30;;
9657;SDS011;4867;48.112;11.622;2024-01-30T13:38:05;5.57;;;2.40;;
9657;SDS011;4867;48.112;11.622;2024-01-30T13:40:33;4.47;;;2.90;;
9657;SDS011;4867;48.112;11.622;2024-01-30T13:43:00;7.30;;;4.57;;
9657;SDS011;4867;48.112;11.622;2024-01-30T13:45:28;4.80;;;2.77;;
9657;SDS011;4867;48.112;11.622;2024-01-30T13:47:56;5.40;;;2.63;;
9657;SDS011;4867;48.112;11.622;2024-01-30T13:50:24;4.40;;;2.47;;
9657;SDS011;4867;48.112;11.622;2024-01-30T13:52:52;4.73;;;2.70;;
9657;SDS011;4867;48.112;11.622;2024-01-30T13:55:20;3.50;;;2.23;;
9657;SDS011;4867;48.112;11.622;2024-01-30T13:57:47;3.27;;;2.70;;
9657;SDS011;4867;48.112;11.622;2024-01-30T14:00:17;4.10;;;2.13;;
9657;SDS011;4867;48.112;11.622;2024-01-30T14:02:45;5.07;;;3.00;;
9657;SDS011;4867;48.112;11.622;2024-01-30T14:05:12;5.07;;;2.50;;
9657;SDS011;4867;48.112;11.622;2024-01-30T14:07:42;3.80;;;2.13;;
9657;SDS011;4867;48.112;11.622;2024-01-30T14:10:12;3.00;;;2.43;;
9657;SDS011;4867;48.112;11.622;2024-01-30T14:12:42;3.60;;;2.20;;
9657;SDS011;4867;48.112;11.622;2024-01-30T14:15:11;7.30;;;4.47;;
9657;SDS011;4867;48.112;11.622;2024-01-30T14:17:53;4.73;;;2.50;;
9657;SDS011;4867;48.112;11.622;2024-01-30T14:20:21;5.70;;;2.73;;
9657;SDS011;4867;48.112;11.622;2024-01-30T14:22:48;4.77;;;2.47;;
9657;SDS011;4867;48.112;11.622;2024-01-30T14:25:16;5.00;;;2.43;;
9657;SDS011;4867;48.112;11.622;2024-01-30T14:27:44;2.87;;;2.40;;
9657;SDS011;4867;48.112;11.622;2024-01-30T14:30:11;4.97;;;2.30;;
9657;SDS011;4867;48.112;11.622;2024-01-30T14:32:39;8.23;;;3.40;;
9657;SDS011;4867;48.112;11.622;2024-01-30T14:35:07;9.03;;;4.13;;
9657;SDS011;4867;48.112;11.622;2024-01-30T14:37:37;5.77;;;4.00;;
9657;SDS011;4867;48.112;11.622;2024-01-30T14:40:04;10.27;;;4.40;;
9657;SDS011;4867;48.112;11.622;2024-01-30T14:42:34;9.33;;;4.37;;
9657;SDS011;4867;48.112;11.622;2024-01-30T14:45:03;10.90;;;4.30;;
9657;SDS011;4867;48.112;11.622;2024-01-30T14:47:31;11.17;;;4.20;;
9657;SDS011;4867;48.112;11.622;2024-01-30T14:49:58;12.73;;;4.17;;
9657;SDS011;4867;48.112;11.622;2024-01-30T14:52:26;11.77;;;4.00;;
9657;SDS011;4867;48.112;11.622;2024-01-30T14:54:53;13.53;;;4.60;;
9657;SDS011;4867;48.112;11.622;2024-01-30T14:57:24;17.50;;;6.13;;
9657;SDS011;4867;48.112;11.622;2024-01-30T14:59:56;9.83;;;4.90;;
9657;SDS011;4867;48.112;11.622;2024-01-30T15:05:21;11.47;;;5.20;;
9657;SDS011;4867;48.112;11.622;2024-01-30T15:07:49;8.87;;;4.40;;
9657;SDS011;4867;48.112;11.622;2024-01-30T15:10:17;10.77;;;4.90;;
9657;SDS011;4867;48.112;11.622;2024-01-30T15:12:44;14.97;;;5.00;;
9657;SDS011;4867;48.112;11.622;2024-01-30T15:15:12;12.30;;;5.70;;
9657;SDS011;4867;48.112;11.622;2024-01-30T15:17:39;10.60;;;5.33;;
9657;SDS011;4867;48.112;11.622;2024-01-30T15:20:07;6.03;;;3.30;;